sensor_id;sensor_type;location;lat;lon;timestamp;pressure;altitude;pressure_sealevel;temperature;humidity
55187;BME280;55457;52.002;5.464;2024-02-26T00:01:36;99745.81;;;21.53;43.38
55187;BME280;55457;52.002;5.464;2024-02-26T00:04:02;99747.72;;;21.52;43.46
55187;BME280;55457;52.002;5.464;2024-02-26T00:06:28;99749.34;;;21.53;43.52
55187;BME280;55457;52.002;5.464;2024-02-26T00:08:54;99737.97;;;21.51;43.74
55187;BME280;55457;52.002;5.464;2024-02-26T00:11:19;99747.72;;;21.52;43.72
55187;BME280;55457;52.002;5.464;2024-02-26T00:13:44;99747.16;;;21.50;43.79
55187;BME280;55457;52.002;5.464;2024-02-26T00:16:10;99752.31;;;21.52;43.36
55187;BME280;55457;52.002;5.464;2024-02-26T00:18:35;99747.72;;;21.52;43.49
55187;BME280;55457;52.002;5.464;2024-02-26T00:21:02;99745.00;;;21.52;43.78
55187;BME280;55457;52.002;5.464;2024-02-26T00:23:27;99746.63;;;21.53;43.53
55187;BME280;55457;52.002;5.464;2024-02-26T00:25:52;99742.28;;;21.52;43.75
55187;BME280;55457;52.002;5.464;2024-02-26T00:28:18;99746.91;;;21.52;43.64
55187;BME280;55457;52.002;5.464;2024-02-26T00:30:45;99753.94;;;21.53;43.55
55187;BME280;55457;52.002;5.464;2024-02-26T00:33:10;99755.84;;;21.52;43.59
55187;BME280;55457;52.002;5.464;2024-02-26T00:35:36;99752.03;;;21.53;43.91
55187;BME280;55457;52.002;5.464;2024-02-26T00:38:01;99753.13;;;21.52;43.69
55187;BME280;55457;52.002;5.464;2024-02-26T00:40:28;99753.13;;;21.52;43.71
55187;BME280;55457;52.002;5.464;2024-02-26T00:42:53;99748.81;;;21.51;43.51
55187;BME280;55457;52.002;5.464;2024-02-26T00:45:19;99749.63;;;21.52;43.62
55187;BME280;55457;52.002;5.464;2024-02-26T00:47:44;99755.03;;;21.52;43.40
55187;BME280;55457;52.002;5.464;2024-02-26T00:50:12;99750.44;;;21.52;43.29
55187;BME280;55457;52.002;5.464;2024-02-26T00:52:37;99754.75;;;21.53;43.79
55187;BME280;55457;52.002;5.464;2024-02-26T00:55:03;99756.38;;;21.54;43.54
55187;BME280;55457;52.002;5.464;2024-02-26T00:57:28;99754.75;;;21.53;43.85
55187;BME280;55457;52.002;5.464;2024-02-26T00:59:54;99749.34;;;21.53;43.55
55187;BME280;55457;52.002;5.464;2024-02-26T01:02:21;99740.91;;;21.55;43.72
55187;BME280;55457;52.002;5.464;2024-02-26T01:04:47;99741.19;;;21.53;43.76
55187;BME280;55457;52.002;5.464;2024-02-26T01:07:12;99739.28;;;21.54;43.45
55187;BME280;55457;52.002;5.464;2024-02-26T01:09:37;99733.06;;;21.53;43.39
55187;BME280;55457;52.002;5.464;2024-02-26T01:12:03;99734.69;;;21.54;43.40
55187;BME280;55457;52.002;5.464;2024-02-26T01:14:28;99734.69;;;21.54;43.36
55187;BME280;55457;52.002;5.464;2024-02-26T01:16:54;99737.41;;;21.54;43.29
55187;BME280;55457;52.002;5.464;2024-02-26T01:19:19;99735.25;;;21.51;43.44
55187;BME280;55457;52.002;5.464;2024-02-26T01:21:44;99742.00;;;21.54;43.36
55187;BME280;55457;52.002;5.464;2024-02-26T01:24:10;99733.06;;;21.53;43.48
55187;BME280;55457;52.002;5.464;2024-02-26T01:26:35;99740.09;;;21.54;43.21
55187;BME280;55457;52.002;5.464;2024-02-26T01:29:01;99742.28;;;21.52;43.55
55187;BME280;55457;52.002;5.464;2024-02-26T01:31:26;99740.09;;;21.54;43.43
55187;BME280;55457;52.002;5.464;2024-02-26T01:33:51;99736.88;;;21.52;43.44
55187;BME280;55457;52.002;5.464;2024-02-26T01:36:17;99742.28;;;21.52;43.63
55187;BME280;55457;52.002;5.464;2024-02-26T01:38:43;99738.78;;;21.52;43.38
55187;BME280;55457;52.002;5.464;2024-02-26T01:41:08;99745.53;;;21.49;43.64
55187;BME280;55457;52.002;5.464;2024-02-26T01:43:34;99744.44;;;21.50;43.41
55187;BME280;55457;52.002;5.464;2024-02-26T01:45:59;99740.13;;;21.49;43.71
55187;BME280;55457;52.002;5.464;2024-02-26T01:48:25;99740.94;;;21.50;43.40
55187;BME280;55457;52.002;5.464;2024-02-26T01:50:51;99742.84;;;21.49;43.53
55187;BME280;55457;52.002;5.464;2024-02-26T01:53:17;99749.88;;;21.50;43.34
55187;BME280;55457;52.002;5.464;2024-02-26T01:55:44;99748.25;;;21.49;43.68
55187;BME280;55457;52.002;5.464;2024-02-26T01:58:09;99744.22;;;21.47;43.56
55187;BME280;55457;52.002;5.464;2024-02-26T02:00:35;99755.28;;;21.50;43.47
55187;BME280;55457;52.002;5.464;2024-02-26T02:03:02;99750.97;;;21.49;43.54
55187;BME280;55457;52.002;5.464;2024-02-26T02:05:28;99749.06;;;21.50;43.61
55187;BME280;55457;52.002;5.464;2024-02-26T02:07:54;99752.59;;;21.50;43.71
55187;BME280;55457;52.002;5.464;2024-02-26T02:10:20;99754.22;;;21.51;43.54
55187;BME280;55457;52.002;5.464;2024-02-26T02:12:50;99759.91;;;21.50;43.47
55187;BME280;55457;52.002;5.464;2024-02-26T02:15:15;99765.06;;;21.51;43.42
55187;BME280;55457;52.002;5.464;2024-02-26T02:17:41;99771.56;;;21.50;43.72
55187;BME280;55457;52.002;5.464;2024-02-26T02:20:15;99773.75;;;21.48;43.83
55187;BME280;55457;52.002;5.464;2024-02-26T02:22:42;99776.97;;;21.50;43.84
55187;BME280;55457;52.002;5.464;2024-02-26T02:25:07;99776.97;;;21.50;43.55
55187;BME280;55457;52.002;5.464;2024-02-26T02:27:32;99786.22;;;21.49;43.66
55187;BME280;55457;52.002;5.464;2024-02-26T02:29:58;99783.50;;;21.49;43.74
55187;BME280;55457;52.002;5.464;2024-02-26T02:32:24;99791.63;;;21.49;43.55
55187;BME280;55457;52.002;5.464;2024-02-26T02:34:50;99794.34;;;21.49;43.68
55187;BME280;55457;52.002;5.464;2024-02-26T02:37:15;99790.00;;;21.48;43.63
55187;BME280;55457;52.002;5.464;2024-02-26T02:39:41;99784.59;;;21.48;43.38
55187;BME280;55457;52.002;5.464;2024-02-26T02:42:08;99789.50;;;21.46;43.35
55187;BME280;55457;52.002;5.464;2024-02-26T02:44:34;99790.00;;;21.48;43.37
55187;BME280;55457;52.002;5.464;2024-02-26T02:46:59;99797.06;;;21.49;43.45
55187;BME280;55457;52.002;5.464;2024-02-26T02:49:24;99807.09;;;21.49;43.35
55187;BME280;55457;52.002;5.464;2024-02-26T02:51:49;99814.41;;;21.48;43.34
55187;BME280;55457;52.002;5.464;2024-02-26T02:54:15;99817.13;;;21.48;43.31
55187;BME280;55457;52.002;5.464;2024-02-26T02:56:40;99825.25;;;21.48;43.63
55187;BME280;55457;52.002;5.464;2024-02-26T02:59:06;99818.22;;;21.47;43.31
55187;BME280;55457;52.002;5.464;2024-02-26T03:01:31;99817.41;;;21.47;43.58
55187;BME280;55457;52.002;5.464;2024-02-26T03:03:56;99826.34;;;21.47;43.75
55187;BME280;55457;52.002;5.464;2024-02-26T03:06:22;99830.16;;;21.46;43.80
55187;BME280;55457;52.002;5.464;2024-02-26T03:08:48;99824.72;;;21.46;43.55
55187;BME280;55457;52.002;5.464;2024-02-26T03:11:14;99822.00;;;21.46;43.75
55187;BME280;55457;52.002;5.464;2024-02-26T03:13:41;99827.16;;;21.48;43.55
55187;BME280;55457;52.002;5.464;2024-02-26T03:16:06;99833.41;;;21.43;43.51
55187;BME280;55457;52.002;5.464;2024-02-26T03:18:32;99834.75;;;21.46;43.71
55187;BME280;55457;52.002;5.464;2024-02-26T03:20:57;99835.56;;;21.46;43.61
55187;BME280;55457;52.002;5.464;2024-02-26T03:23:22;99836.38;;;21.47;43.37
55187;BME280;55457;52.002;5.464;2024-02-26T03:25:48;99835.81;;;21.45;43.57
55187;BME280;55457;52.002;5.464;2024-02-26T03:28:13;99847.47;;;21.45;43.69
55187;BME280;55457;52.002;5.464;2024-02-26T03:30:39;99848.31;;;21.46;43.76
55187;BME280;55457;52.002;5.464;2024-02-26T03:33:04;99851.03;;;21.46;43.69
55187;BME280;55457;52.002;5.464;2024-02-26T03:35:29;99851.03;;;21.46;43.25
55187;BME280;55457;52.002;5.464;2024-02-26T03:37:55;99851.56;;;21.43;43.38
55187;BME280;55457;52.002;5.464;2024-02-26T03:40:20;99850.47;;;21.44;43.51
55187;BME280;55457;52.002;5.464;2024-02-26T03:42:46;99853.19;;;21.44;43.57
55187;BME280;55457;52.002;5.464;2024-02-26T03:45:11;99854.00;;;21.44;43.58
55187;BME280;55457;52.002;5.464;2024-02-26T03:47:40;99855.09;;;21.43;43.22
55187;BME280;55457;52.002;5.464;2024-02-26T03:50:06;99852.38;;;21.43;43.28
55187;BME280;55457;52.002;5.464;2024-02-26T03:52:32;99849.13;;;21.41;43.56
55187;BME280;55457;52.002;5.464;2024-02-26T03:54:58;99854.56;;;21.41;43.49
55187;BME280;55457;52.002;5.464;2024-02-26T03:57:23;99849.13;;;21.41;43.73
55187;BME280;55457;52.002;5.464;2024-02-26T03:59:48;99850.19;;;21.40;43.64
55187;BME280;55457;52.002;5.464;2024-02-26T04:02:14;99854.56;;;21.41;43.37
55187;BME280;55457;52.002;5.464;2024-02-26T04:04:39;99851.84;;;21.41;43.85
55187;BME280;55457;52.002;5.464;2024-02-26T04:07:04;99852.66;;;21.42;43.52
55187;BME280;55457;52.002;5.464;2024-02-26T04:09:31;99857.25;;;21.41;43.41
55187;BME280;55457;52.002;5.464;2024-02-26T04:11:57;99857.25;;;21.41;43.31
55187;BME280;55457;52.002;5.464;2024-02-26T04:14:22;99854.56;;;21.41;43.49
55187;BME280;55457;52.002;5.464;2024-02-26T04:16:47;99865.41;;;21.41;43.70
55187;BME280;55457;52.002;5.464;2024-02-26T04:19:16;99859.16;;;21.41;43.65
55187;BME280;55457;52.002;5.464;2024-02-26T04:21:42;99864.59;;;21.41;43.50
55187;BME280;55457;52.002;5.464;2024-02-26T04:24:08;99867.28;;;21.41;43.71
55187;BME280;55457;52.002;5.464;2024-02-26T04:26:33;99867.28;;;21.41;42.95
55187;BME280;55457;52.002;5.464;2024-02-26T04:28:58;99872.44;;;21.42;43.45
55187;BME280;55457;52.002;5.464;2024-02-26T04:31:24;99869.16;;;21.40;43.72
55187;BME280;55457;52.002;5.464;2024-02-26T04:33:49;99874.59;;;21.40;43.42
55187;BME280;55457;52.002;5.464;2024-02-26T04:36:15;99875.44;;;21.41;43.32
55187;BME280;55457;52.002;5.464;2024-02-26T04:38:44;99875.16;;;21.42;43.63
55187;BME280;55457;52.002;5.464;2024-02-26T04:41:10;99876.25;;;21.41;43.52
55187;BME280;55457;52.002;5.464;2024-02-26T04:43:35;99875.16;;;21.42;43.38
55187;BME280;55457;52.002;5.464;2024-02-26T04:46:09;99867.00;;;21.42;43.39
55187;BME280;55457;52.002;5.464;2024-02-26T04:48:35;99875.97;;;21.43;43.30
55187;BME280;55457;52.002;5.464;2024-02-26T04:51:01;99874.06;;;21.43;43.31
55187;BME280;55457;52.002;5.464;2024-02-26T04:53:26;99880.28;;;21.44;43.30
55187;BME280;55457;52.002;5.464;2024-02-26T04:55:52;99886.50;;;21.44;43.27
55187;BME280;55457;52.002;5.464;2024-02-26T04:58:17;99886.50;;;21.44;43.63
55187;BME280;55457;52.002;5.464;2024-02-26T05:00:42;99889.22;;;21.44;43.55
55187;BME280;55457;52.002;5.464;2024-02-26T05:03:08;99897.34;;;21.44;43.02
55187;BME280;55457;52.002;5.464;2024-02-26T05:05:38;99898.97;;;21.45;43.58
55187;BME280;55457;52.002;5.464;2024-02-26T05:08:03;99888.13;;;21.45;43.60
55187;BME280;55457;52.002;5.464;2024-02-26T05:10:28;99902.25;;;21.47;43.52
55187;BME280;55457;52.002;5.464;2024-02-26T05:12:54;99904.97;;;21.47;43.14
55187;BME280;55457;52.002;5.464;2024-02-26T05:15:19;99905.47;;;21.49;43.59
55187;BME280;55457;52.002;5.464;2024-02-26T05:17:44;99910.09;;;21.49;43.13
55187;BME280;55457;52.002;5.464;2024-02-26T05:20:10;99905.47;;;21.49;43.20
55187;BME280;55457;52.002;5.464;2024-02-26T05:22:36;99898.97;;;21.50;43.07
55187;BME280;55457;52.002;5.464;2024-02-26T05:25:02;99892.75;;;21.50;43.29
55187;BME280;55457;52.002;5.464;2024-02-26T05:27:28;99901.44;;;21.52;43.47
55187;BME280;55457;52.002;5.464;2024-02-26T05:29:53;99903.34;;;21.51;43.33
55187;BME280;55457;52.002;5.464;2024-02-26T05:32:19;99901.44;;;21.52;43.09
55187;BME280;55457;52.002;5.464;2024-02-26T05:34:44;99904.13;;;21.52;43.09
55187;BME280;55457;52.002;5.464;2024-02-26T05:37:10;99907.09;;;21.50;43.27
55187;BME280;55457;52.002;5.464;2024-02-26T05:39:35;99913.09;;;21.52;43.16
55187;BME280;55457;52.002;5.464;2024-02-26T05:42:00;99915.78;;;21.52;43.02
55187;BME280;55457;52.002;5.464;2024-02-26T05:44:26;99917.41;;;21.53;43.22
55187;BME280;55457;52.002;5.464;2024-02-26T05:46:52;99920.13;;;21.53;42.92
55187;BME280;55457;52.002;5.464;2024-02-26T05:49:17;99922.84;;;21.53;43.31
55187;BME280;55457;52.002;5.464;2024-02-26T05:51:42;99920.13;;;21.53;43.30
55187;BME280;55457;52.002;5.464;2024-02-26T05:54:08;99925.25;;;21.55;42.87
55187;BME280;55457;52.002;5.464;2024-02-26T05:56:35;99926.34;;;21.54;43.36
55187;BME280;55457;52.002;5.464;2024-02-26T05:59:00;99942.34;;;21.55;43.04
55187;BME280;55457;52.002;5.464;2024-02-26T06:01:26;99936.91;;;21.55;42.99
55187;BME280;55457;52.002;5.464;2024-02-26T06:03:51;99935.00;;;21.56;43.16
55187;BME280;55457;52.002;5.464;2024-02-26T06:06:17;99926.88;;;21.56;42.83
55187;BME280;55457;52.002;5.464;2024-02-26T06:08:42;99933.16;;;21.56;43.20
55187;BME280;55457;52.002;5.464;2024-02-26T06:11:08;99939.38;;;21.57;42.84
55187;BME280;55457;52.002;5.464;2024-02-26T06:13:34;99952.66;;;21.58;42.80
55187;BME280;55457;52.002;5.464;2024-02-26T06:15:59;99958.06;;;21.58;43.15
55187;BME280;55457;52.002;5.464;2024-02-26T06:18:25;99960.78;;;21.58;43.18
55187;BME280;55457;52.002;5.464;2024-02-26T06:20:50;99954.84;;;21.56;43.25
55187;BME280;55457;52.002;5.464;2024-02-26T06:23:16;99949.41;;;21.56;43.23
55187;BME280;55457;52.002;5.464;2024-02-26T06:25:41;99950.47;;;21.55;42.85
55187;BME280;55457;52.002;5.464;2024-02-26T06:28:07;99960.50;;;21.55;42.86
55187;BME280;55457;52.002;5.464;2024-02-26T06:30:33;99965.69;;;21.56;42.99
55187;BME280;55457;52.002;5.464;2024-02-26T06:32:58;99975.69;;;21.56;42.83
55187;BME280;55457;52.002;5.464;2024-02-26T06:35:23;99964.03;;;21.55;42.83
55187;BME280;55457;52.002;5.464;2024-02-26T06:37:49;99969.44;;;21.55;43.14
55187;BME280;55457;52.002;5.464;2024-02-26T06:40:17;99974.88;;;21.55;42.80
55187;BME280;55457;52.002;5.464;2024-02-26T06:42:43;99979.50;;;21.55;43.19
55187;BME280;55457;52.002;5.464;2024-02-26T06:45:09;99991.13;;;21.55;42.96
55187;BME280;55457;52.002;5.464;2024-02-26T06:47:34;99986.00;;;21.54;43.11
55187;BME280;55457;52.002;5.464;2024-02-26T06:49:59;99982.47;;;21.53;43.11
55187;BME280;55457;52.002;5.464;2024-02-26T06:52:26;99989.53;;;21.54;42.93
55187;BME280;55457;52.002;5.464;2024-02-26T06:54:52;100002.00;;;21.55;43.04
55187;BME280;55457;52.002;5.464;2024-02-26T06:57:21;100001.19;;;21.55;42.85
55187;BME280;55457;52.002;5.464;2024-02-26T06:59:46;99993.84;;;21.55;43.14
55187;BME280;55457;52.002;5.464;2024-02-26T07:02:13;100013.09;;;21.59;43.49
55187;BME280;55457;52.002;5.464;2024-02-26T07:04:38;100012.31;;;21.58;43.61
55187;BME280;55457;52.002;5.464;2024-02-26T07:07:03;100008.22;;;21.56;43.72
55187;BME280;55457;52.002;5.464;2024-02-26T07:09:29;100012.84;;;21.55;43.28
55187;BME280;55457;52.002;5.464;2024-02-26T07:11:54;100018.25;;;21.55;43.85
55187;BME280;55457;52.002;5.464;2024-02-26T07:14:19;100026.66;;;21.54;44.41
55187;BME280;55457;52.002;5.464;2024-02-26T07:16:45;100035.88;;;21.53;44.18
55187;BME280;55457;52.002;5.464;2024-02-26T07:19:10;100031.28;;;21.53;44.75
55187;BME280;55457;52.002;5.464;2024-02-26T07:21:35;100035.06;;;21.52;44.63
55187;BME280;55457;52.002;5.464;2024-02-26T07:24:01;100038.88;;;21.51;44.71
55187;BME280;55457;52.002;5.464;2024-02-26T07:26:26;100033.47;;;21.51;44.82
55187;BME280;55457;52.002;5.464;2024-02-26T07:28:52;100037.22;;;21.50;44.68
55187;BME280;55457;52.002;5.464;2024-02-26T07:31:17;100041.03;;;21.49;45.02
55187;BME280;55457;52.002;5.464;2024-02-26T07:33:43;100041.84;;;21.50;44.89
55187;BME280;55457;52.002;5.464;2024-02-26T07:36:08;100044.81;;;21.48;44.92
55187;BME280;55457;52.002;5.464;2024-02-26T07:38:33;100049.44;;;21.48;44.97
55187;BME280;55457;52.002;5.464;2024-02-26T07:40:59;100043.22;;;21.47;44.86
55187;BME280;55457;52.002;5.464;2024-02-26T07:43:24;100055.66;;;21.48;44.65
55187;BME280;55457;52.002;5.464;2024-02-26T07:45:49;100053.25;;;21.47;45.07
55187;BME280;55457;52.002;5.464;2024-02-26T07:48:14;100055.94;;;21.47;44.76
55187;BME280;55457;52.002;5.464;2024-02-26T07:50:40;100056.19;;;21.45;45.04
55187;BME280;55457;52.002;5.464;2024-02-26T07:53:06;100058.38;;;21.43;44.79
55187;BME280;55457;52.002;5.464;2024-02-26T07:55:33;100071.66;;;21.45;45.29
55187;BME280;55457;52.002;5.464;2024-02-26T07:57:59;100074.63;;;21.43;45.15
55187;BME280;55457;52.002;5.464;2024-02-26T08:00:24;100080.06;;;21.43;44.92
55187;BME280;55457;52.002;5.464;2024-02-26T08:02:49;100076.53;;;21.43;44.81
55187;BME280;55457;52.002;5.464;2024-02-26T08:05:15;100080.06;;;21.43;45.02
55187;BME280;55457;52.002;5.464;2024-02-26T08:07:40;100092.81;;;21.43;44.93
55187;BME280;55457;52.002;5.464;2024-02-26T08:10:06;100092.00;;;21.42;44.62
55187;BME280;55457;52.002;5.464;2024-02-26T08:12:32;100096.31;;;21.43;44.45
55187;BME280;55457;52.002;5.464;2024-02-26T08:14:57;100100.13;;;21.42;44.73
55187;BME280;55457;52.002;5.464;2024-02-26T08:17:23;100097.41;;;21.42;44.88
55187;BME280;55457;52.002;5.464;2024-02-26T08:19:49;100108.25;;;21.42;44.69
55187;BME280;55457;52.002;5.464;2024-02-26T08:22:14;100106.63;;;21.41;44.51
55187;BME280;55457;52.002;5.464;2024-02-26T08:24:42;100113.97;;;21.41;44.62
55187;BME280;55457;52.002;5.464;2024-02-26T08:27:07;100117.47;;;21.41;44.55
55187;BME280;55457;52.002;5.464;2024-02-26T08:29:33;100115.00;;;21.40;44.25
55187;BME280;55457;52.002;5.464;2024-02-26T08:31:58;100118.81;;;21.39;44.35
55187;BME280;55457;52.002;5.464;2024-02-26T08:34:24;100125.59;;;21.36;44.40
55187;BME280;55457;52.002;5.464;2024-02-26T08:36:50;100133.72;;;21.36;44.91
55187;BME280;55457;52.002;5.464;2024-02-26T08:39:16;100138.34;;;21.35;44.75
55187;BME280;55457;52.002;5.464;2024-02-26T08:41:42;100131.00;;;21.36;44.59
55187;BME280;55457;52.002;5.464;2024-02-26T08:44:08;100135.34;;;21.37;44.72
55187;BME280;55457;52.002;5.464;2024-02-26T08:46:33;100139.38;;;21.34;45.12
55187;BME280;55457;52.002;5.464;2024-02-26T08:48:58;100133.72;;;21.36;44.84
55187;BME280;55457;52.002;5.464;2024-02-26T08:51:24;100144.56;;;21.36;44.91
55187;BME280;55457;52.002;5.464;2024-02-26T08:53:49;100136.97;;;21.38;44.82
55187;BME280;55457;52.002;5.464;2024-02-26T08:56:16;100146.19;;;21.37;44.92
55187;BME280;55457;52.002;5.464;2024-02-26T08:58:44;100152.44;;;21.38;44.98
55187;BME280;55457;52.002;5.464;2024-02-26T09:01:09;100151.34;;;21.39;44.70
55187;BME280;55457;52.002;5.464;2024-02-26T09:03:35;100153.22;;;21.38;44.68
55187;BME280;55457;52.002;5.464;2024-02-26T09:06:00;100161.38;;;21.38;44.55
55187;BME280;55457;52.002;5.464;2024-02-26T09:08:25;100157.03;;;21.37;44.62
55187;BME280;55457;52.002;5.464;2024-02-26T09:10:51;100164.06;;;21.38;44.95
55187;BME280;55457;52.002;5.464;2024-02-26T09:13:16;100168.41;;;21.39;44.79
55187;BME280;55457;52.002;5.464;2024-02-26T09:15:41;100168.41;;;21.39;44.94
55187;BME280;55457;52.002;5.464;2024-02-26T09:18:07;100173.84;;;21.39;44.54
55187;BME280;55457;52.002;5.464;2024-02-26T09:20:32;100179.25;;;21.39;44.93
55187;BME280;55457;52.002;5.464;2024-02-26T09:22:57;100167.59;;;21.39;44.73
55187;BME280;55457;52.002;5.464;2024-02-26T09:25:23;100180.88;;;21.40;44.48
55187;BME280;55457;52.002;5.464;2024-02-26T09:27:48;100182.53;;;21.41;44.81
55187;BME280;55457;52.002;5.464;2024-02-26T09:30:14;100179.81;;;21.41;44.45
55187;BME280;55457;52.002;5.464;2024-02-26T09:32:40;100189.00;;;21.40;44.34
55187;BME280;55457;52.002;5.464;2024-02-26T09:35:06;100195.50;;;21.39;44.45
55187;BME280;55457;52.002;5.464;2024-02-26T09:37:32;100194.97;;;21.37;44.28
55187;BME280;55457;52.002;5.464;2024-02-26T09:39:58;100193.09;;;21.38;44.61
55187;BME280;55457;52.002;5.464;2024-02-26T09:42:27;100199.59;;;21.36;44.67
55187;BME280;55457;52.002;5.464;2024-02-26T09:44:55;100205.81;;;21.37;44.28
55187;BME280;55457;52.002;5.464;2024-02-26T09:47:23;100205.81;;;21.37;44.31
55187;BME280;55457;52.002;5.464;2024-02-26T09:49:51;100205.81;;;21.37;44.26
55187;BME280;55457;52.002;5.464;2024-02-26T09:52:19;100207.44;;;21.38;44.16
55187;BME280;55457;52.002;5.464;2024-02-26T09:54:50;100216.66;;;21.37;44.54
55187;BME280;55457;52.002;5.464;2024-02-26T09:57:16;100213.94;;;21.37;44.47
55187;BME280;55457;52.002;5.464;2024-02-26T09:59:43;100219.91;;;21.39;44.41
55187;BME280;55457;52.002;5.464;2024-02-26T10:02:12;100225.34;;;21.39;44.40
55187;BME280;55457;52.002;5.464;2024-02-26T10:04:39;100235.38;;;21.39;44.05
55187;BME280;55457;52.002;5.464;2024-02-26T10:07:07;100238.66;;;21.41;44.26
55187;BME280;55457;52.002;5.464;2024-02-26T10:09:35;100238.88;;;21.39;44.12
55187;BME280;55457;52.002;5.464;2024-02-26T10:12:00;100237.81;;;21.40;44.21
55187;BME280;55457;52.002;5.464;2024-02-26T10:14:26;100241.59;;;21.39;44.25
55187;BME280;55457;52.002;5.464;2024-02-26T10:16:51;100254.06;;;21.40;44.01
55187;BME280;55457;52.002;5.464;2024-02-26T10:19:25;100258.69;;;21.40;44.15
55187;BME280;55457;52.002;5.464;2024-02-26T10:21:55;100261.16;;;21.41;43.89
55187;BME280;55457;52.002;5.464;2024-02-26T10:24:22;100262.19;;;21.40;43.87
55187;BME280;55457;52.002;5.464;2024-02-26T10:26:47;100269.50;;;21.40;43.79
55187;BME280;55457;52.002;5.464;2024-02-26T10:29:13;100276.84;;;21.39;44.04
55187;BME280;55457;52.002;5.464;2024-02-26T10:31:42;100282.25;;;21.39;43.80
55187;BME280;55457;52.002;5.464;2024-02-26T10:34:07;100284.97;;;21.39;43.83
55187;BME280;55457;52.002;5.464;2024-02-26T10:36:34;100290.38;;;21.39;43.88
55187;BME280;55457;52.002;5.464;2024-02-26T10:39:02;100290.38;;;21.39;43.62
55187;BME280;55457;52.002;5.464;2024-02-26T10:41:27;100293.66;;;21.41;44.21
55187;BME280;55457;52.002;5.464;2024-02-26T10:43:54;100300.72;;;21.42;43.58
55187;BME280;55457;52.002;5.464;2024-02-26T10:46:19;100295.28;;;21.42;43.78
55187;BME280;55457;52.002;5.464;2024-02-26T10:48:51;100310.47;;;21.43;43.70
55187;BME280;55457;52.002;5.464;2024-02-26T10:51:27;100308.56;;;21.44;43.38
55187;BME280;55457;52.002;5.464;2024-02-26T10:53:58;100310.75;;;21.42;43.43
55187;BME280;55457;52.002;5.464;2024-02-26T10:56:25;100316.97;;;21.42;43.52
55187;BME280;55457;52.002;5.464;2024-02-26T10:58:52;100321.03;;;21.45;43.48
55187;BME280;55457;52.002;5.464;2024-02-26T11:01:19;100319.41;;;21.44;43.70
55187;BME280;55457;52.002;5.464;2024-02-26T11:03:47;100325.66;;;21.44;43.33
55187;BME280;55457;52.002;5.464;2024-02-26T11:06:14;100331.06;;;21.44;43.80
55187;BME280;55457;52.002;5.464;2024-02-26T11:08:40;100342.72;;;21.45;43.43
55187;BME280;55457;52.002;5.464;2024-02-26T11:11:06;100338.97;;;21.46;43.62
55187;BME280;55457;52.002;5.464;2024-02-26T11:13:33;100345.19;;;21.46;43.42
55187;BME280;55457;52.002;5.464;2024-02-26T11:15:59;100348.97;;;21.45;43.40
55187;BME280;55457;52.002;5.464;2024-02-26T11:18:27;100356.56;;;21.43;43.47
55187;BME280;55457;52.002;5.464;2024-02-26T11:20:54;100345.72;;;21.43;43.72
55187;BME280;55457;52.002;5.464;2024-02-26T11:23:22;100354.41;;;21.45;43.33
55187;BME280;55457;52.002;5.464;2024-02-26T11:25:51;100360.09;;;21.44;43.56
55187;BME280;55457;52.002;5.464;2024-02-26T11:28:19;100361.47;;;21.46;43.35
55187;BME280;55457;52.002;5.464;2024-02-26T11:30:47;100362.53;;;21.45;43.62
55187;BME280;55457;52.002;5.464;2024-02-26T11:33:14;100366.31;;;21.44;43.71
55187;BME280;55457;52.002;5.464;2024-02-26T11:35:40;100374.44;;;21.44;43.74
55187;BME280;55457;52.002;5.464;2024-02-26T11:38:06;100372.81;;;21.43;43.67
55187;BME280;55457;52.002;5.464;2024-02-26T11:40:33;100370.94;;;21.44;43.65
55187;BME280;55457;52.002;5.464;2024-02-26T11:42:59;100372.56;;;21.45;44.05
55187;BME280;55457;52.002;5.464;2024-02-26T11:50:39;100388.31;;;21.48;43.75
55187;BME280;55457;52.002;5.464;2024-02-26T11:53:26;100382.34;;;21.46;44.17
55187;BME280;55457;52.002;5.464;2024-02-26T11:58:40;100397.00;;;21.50;43.81
55187;BME280;55457;52.002;5.464;2024-02-26T12:01:06;100411.34;;;21.50;43.95
55187;BME280;55457;52.002;5.464;2024-02-26T12:03:31;100404.31;;;21.49;43.79
55187;BME280;55457;52.002;5.464;2024-02-26T12:05:56;100404.06;;;21.51;43.87
55187;BME280;55457;52.002;5.464;2024-02-26T12:08:22;100410.31;;;21.51;43.97
55187;BME280;55457;52.002;5.464;2024-02-26T12:10:48;100404.88;;;21.51;43.93
55187;BME280;55457;52.002;5.464;2024-02-26T12:13:17;100414.66;;;21.52;43.84
55187;BME280;55457;52.002;5.464;2024-02-26T12:15:55;100411.13;;;21.52;44.13
55187;BME280;55457;52.002;5.464;2024-02-26T12:18:21;100408.09;;;21.48;44.30
55187;BME280;55457;52.002;5.464;2024-02-26T12:21:00;100423.84;;;21.51;44.08
55187;BME280;55457;52.002;5.464;2024-02-26T12:23:26;100424.69;;;21.52;44.04
55187;BME280;55457;52.002;5.464;2024-02-26T12:25:52;100430.91;;;21.52;43.90
55187;BME280;55457;52.002;5.464;2024-02-26T12:28:19;100430.09;;;21.52;44.08
55187;BME280;55457;52.002;5.464;2024-02-26T12:30:45;100429.28;;;21.51;44.01
55187;BME280;55457;52.002;5.464;2024-02-26T12:33:18;100430.91;;;21.52;44.13
55187;BME280;55457;52.002;5.464;2024-02-26T12:35:43;100430.91;;;21.52;43.96
55187;BME280;55457;52.002;5.464;2024-02-26T12:38:14;100433.91;;;21.51;43.91
55187;BME280;55457;52.002;5.464;2024-02-26T12:40:39;100438.47;;;21.50;44.35
55187;BME280;55457;52.002;5.464;2024-02-26T12:43:05;100434.72;;;21.51;44.38
55187;BME280;55457;52.002;5.464;2024-02-26T12:45:30;100438.47;;;21.50;43.52
55187;BME280;55457;52.002;5.464;2024-02-26T12:47:56;100446.59;;;21.50;43.52
55187;BME280;55457;52.002;5.464;2024-02-26T12:50:22;100453.09;;;21.49;43.35
55187;BME280;55457;52.002;5.464;2024-02-26T12:52:47;100453.38;;;21.48;43.34
55187;BME280;55457;52.002;5.464;2024-02-26T12:55:18;100454.75;;;21.50;43.80
55187;BME280;55457;52.002;5.464;2024-02-26T12:57:46;100459.63;;;21.48;43.59